sensor_id;sensor_type;location;lat;lon;timestamp;temperature;humidity
8595;DHT22;4335;48.860;9.198;2022-08-19T00:00:52;21.60;99.90
8595;DHT22;4335;48.860;9.198;2022-08-19T00:03:19;21.60;99.90
8595;DHT22;4335;48.860;9.198;2022-08-19T00:05:46;21.60;99.90
8595;DHT22;4335;48.860;9.198;2022-08-19T00:08:12;21.50;99.90
8595;DHT22;4335;48.860;9.198;2022-08-19T00:10:40;21.60;99.90
8595;DHT22;4335;48.860;9.198;2022-08-19T00:13:06;21.60;99.90
8595;DHT22;4335;48.860;9.198;2022-08-19T00:15:33;21.50;99.90
8595;DHT22;4335;48.860;9.198;2022-08-19T00:18:00;21.50;99.90
8595;DHT22;4335;48.860;9.198;2022-08-19T00:20:29;21.50;99.90
8595;DHT22;4335;48.860;9.198;2022-08-19T00:22:55;21.50;99.90
8595;DHT22;4335;48.860;9.198;2022-08-19T00:25:22;21.50;99.90
8595;DHT22;4335;48.860;9.198;2022-08-19T00:27:50;21.50;99.90
8595;DHT22;4335;48.860;9.198;2022-08-19T00:30:20;21.40;99.90
8595;DHT22;4335;48.860;9.198;2022-08-19T00:32:46;21.40;99.90
8595;DHT22;4335;48.860;9.198;2022-08-19T00:35:13;21.40;99.90
8595;DHT22;4335;48.860;9.198;2022-08-19T00:37:40;21.40;99.90
8595;DHT22;4335;48.860;9.198;2022-08-19T00:40:10;21.40;99.90
8595;DHT22;4335;48.860;9.198;2022-08-19T00:42:37;21.40;99.90
8595;DHT22;4335;48.860;9.198;2022-08-19T00:45:10;21.40;99.90
8595;DHT22;4335;48.860;9.198;2022-08-19T00:47:37;21.40;99.90
8595;DHT22;4335;48.860;9.198;2022-08-19T00:50:05;21.40;99.90
8595;DHT22;4335;48.860;9.198;2022-08-19T00:52:35;21.40;99.90
8595;DHT22;4335;48.860;9.198;2022-08-19T00:55:04;21.40;99.90
8595;DHT22;4335;48.860;9.198;2022-08-19T00:57:35;21.40;99.90
8595;DHT22;4335;48.860;9.198;2022-08-19T01:00:10;21.50;99.90
8595;DHT22;4335;48.860;9.198;2022-08-19T01:02:37;21.50;99.90
8595;DHT22;4335;48.860;9.198;2022-08-19T01:05:11;21.40;99.90
8595;DHT22;4335;48.860;9.198;2022-08-19T01:07:41;21.50;99.90
8595;DHT22;4335;48.860;9.198;2022-08-19T01:10:12;21.50;99.90
8595;DHT22;4335;48.860;9.198;2022-08-19T01:12:39;21.50;99.90
8595;DHT22;4335;48.860;9.198;2022-08-19T01:15:10;21.40;99.90
8595;DHT22;4335;48.860;9.198;2022-08-19T01:17:39;21.40;99.90
8595;DHT22;4335;48.860;9.198;2022-08-19T01:20:14;21.40;99.90
8595;DHT22;4335;48.860;9.198;2022-08-19T01:22:45;21.40;99.90
8595;DHT22;4335;48.860;9.198;2022-08-19T01:25:19;21.40;99.90
8595;DHT22;4335;48.860;9.198;2022-08-19T01:27:48;21.40;99.90
8595;DHT22;4335;48.860;9.198;2022-08-19T01:30:18;21.30;99.90
8595;DHT22;4335;48.860;9.198;2022-08-19T01:32:45;21.30;99.90
8595;DHT22;4335;48.860;9.198;2022-08-19T01:35:16;21.30;99.90
8595;DHT22;4335;48.860;9.198;2022-08-19T01:37:47;21.30;99.90
8595;DHT22;4335;48.860;9.198;2022-08-19T01:40:15;21.30;99.90
8595;DHT22;4335;48.860;9.198;2022-08-19T01:42:41;21.30;99.90
8595;DHT22;4335;48.860;9.198;2022-08-19T01:45:09;21.30;99.90
8595;DHT22;4335;48.860;9.198;2022-08-19T01:47:37;21.20;99.90
8595;DHT22;4335;48.860;9.198;2022-08-19T01:50:11;21.20;99.90
8595;DHT22;4335;48.860;9.198;2022-08-19T01:52:38;21.20;99.90
8595;DHT22;4335;48.860;9.198;2022-08-19T01:55:12;21.20;99.90
8595;DHT22;4335;48.860;9.198;2022-08-19T01:57:41;21.20;99.90
8595;DHT22;4335;48.860;9.198;2022-08-19T02:00:12;21.10;99.90
8595;DHT22;4335;48.860;9.198;2022-08-19T02:02:39;21.10;99.90
8595;DHT22;4335;48.860;9.198;2022-08-19T02:05:09;21.10;99.90
8595;DHT22;4335;48.860;9.198;2022-08-19T02:07:37;21.10;99.90
8595;DHT22;4335;48.860;9.198;2022-08-19T02:10:14;21.10;99.90
8595;DHT22;4335;48.860;9.198;2022-08-19T02:12:41;21.10;99.90
8595;DHT22;4335;48.860;9.198;2022-08-19T02:15:09;21.10;99.90
8595;DHT22;4335;48.860;9.198;2022-08-19T02:17:39;21.20;99.90
8595;DHT22;4335;48.860;9.198;2022-08-19T02:20:13;21.20;99.90
8595;DHT22;4335;48.860;9.198;2022-08-19T02:22:41;21.20;99.90
8595;DHT22;4335;48.860;9.198;2022-08-19T02:25:09;21.10;99.90
8595;DHT22;4335;48.860;9.198;2022-08-19T02:27:36;21.10;99.90
8595;DHT22;4335;48.860;9.198;2022-08-19T02:30:05;21.00;99.90
8595;DHT22;4335;48.860;9.198;2022-08-19T02:32:32;21.00;99.90
8595;DHT22;4335;48.860;9.198;2022-08-19T02:34:59;21.00;99.90
8595;DHT22;4335;48.860;9.198;2022-08-19T02:37:29;21.00;99.90
8595;DHT22;4335;48.860;9.198;2022-08-19T02:40:17;20.90;99.90
8595;DHT22;4335;48.860;9.198;2022-08-19T02:42:45;20.90;99.90
8595;DHT22;4335;48.860;9.198;2022-08-19T02:45:13;20.80;99.90
8595;DHT22;4335;48.860;9.198;2022-08-19T02:47:40;20.80;99.90
8595;DHT22;4335;48.860;9.198;2022-08-19T02:50:07;20.80;99.90
8595;DHT22;4335;48.860;9.198;2022-08-19T02:52:35;20.80;99.90
8595;DHT22;4335;48.860;9.198;2022-08-19T02:55:05;20.80;99.90
8595;DHT22;4335;48.860;9.198;2022-08-19T02:57:33;20.80;99.90
8595;DHT22;4335;48.860;9.198;2022-08-19T03:00:04;20.80;99.90
8595;DHT22;4335;48.860;9.198;2022-08-19T03:02:34;20.80;99.90
8595;DHT22;4335;48.860;9.198;2022-08-19T03:05:05;20.80;99.90
8595;DHT22;4335;48.860;9.198;2022-08-19T03:07:32;20.70;99.90
8595;DHT22;4335;48.860;9.198;2022-08-19T03:09:59;20.70;99.90
8595;DHT22;4335;48.860;9.198;2022-08-19T03:12:25;20.70;99.90
8595;DHT22;4335;48.860;9.198;2022-08-19T03:14:53;20.70;99.90
8595;DHT22;4335;48.860;9.198;2022-08-19T03:17:20;20.60;99.90
8595;DHT22;4335;48.860;9.198;2022-08-19T03:19:46;20.60;99.90
8595;DHT22;4335;48.860;9.198;2022-08-19T03:22:16;20.60;99.90
8595;DHT22;4335;48.860;9.198;2022-08-19T03:24:46;20.60;99.90
8595;DHT22;4335;48.860;9.198;2022-08-19T03:27:13;20.60;99.90
8595;DHT22;4335;48.860;9.198;2022-08-19T03:29:40;20.60;99.90
8595;DHT22;4335;48.860;9.198;2022-08-19T03:32:13;20.60;99.90
8595;DHT22;4335;48.860;9.198;2022-08-19T03:34:40;20.60;99.90
8595;DHT22;4335;48.860;9.198;2022-08-19T03:37:11;20.50;99.90
8595;DHT22;4335;48.860;9.198;2022-08-19T03:39:38;20.50;99.90
8595;DHT22;4335;48.860;9.198;2022-08-19T03:42:06;20.50;99.90
8595;DHT22;4335;48.860;9.198;2022-08-19T03:44:35;20.50;99.90
8595;DHT22;4335;48.860;9.198;2022-08-19T03:47:04;20.40;99.90
8595;DHT22;4335;48.860;9.198;2022-08-19T03:49:32;20.40;99.90
8595;DHT22;4335;48.860;9.198;2022-08-19T03:52:00;20.40;99.90
8595;DHT22;4335;48.860;9.198;2022-08-19T03:54:28;20.40;99.90
8595;DHT22;4335;48.860;9.198;2022-08-19T03:56:55;20.40;99.90
8595;DHT22;4335;48.860;9.198;2022-08-19T03:59:25;20.30;99.90
8595;DHT22;4335;48.860;9.198;2022-08-19T04:01:57;20.30;99.90
8595;DHT22;4335;48.860;9.198;2022-08-19T04:04:24;20.30;99.90
8595;DHT22;4335;48.860;9.198;2022-08-19T04:06:52;20.30;99.90
8595;DHT22;4335;48.860;9.198;2022-08-19T04:09:22;20.20;99.90
8595;DHT22;4335;48.860;9.198;2022-08-19T04:11:51;20.30;99.90
8595;DHT22;4335;48.860;9.198;2022-08-19T04:14:23;20.20;99.90
8595;DHT22;4335;48.860;9.198;2022-08-19T04:16:51;20.30;99.90
8595;DHT22;4335;48.860;9.198;2022-08-19T04:19:29;20.20;99.90
8595;DHT22;4335;48.860;9.198;2022-08-19T04:21:57;20.20;99.90
8595;DHT22;4335;48.860;9.198;2022-08-19T04:24:24;20.20;99.90
8595;DHT22;4335;48.860;9.198;2022-08-19T04:26:51;20.20;99.90
8595;DHT22;4335;48.860;9.198;2022-08-19T04:29:20;20.20;99.90
8595;DHT22;4335;48.860;9.198;2022-08-19T04:31:48;20.20;99.90
8595;DHT22;4335;48.860;9.198;2022-08-19T04:34:17;20.20;99.90
8595;DHT22;4335;48.860;9.198;2022-08-19T04:36:51;20.20;99.90
8595;DHT22;4335;48.860;9.198;2022-08-19T04:39:21;20.20;99.90
8595;DHT22;4335;48.860;9.198;2022-08-19T04:41:48;20.20;99.90
8595;DHT22;4335;48.860;9.198;2022-08-19T04:44:39;20.30;99.90
8595;DHT22;4335;48.860;9.198;2022-08-19T04:47:08;20.20;99.90
8595;DHT22;4335;48.860;9.198;2022-08-19T04:49:35;20.10;99.90
8595;DHT22;4335;48.860;9.198;2022-08-19T04:52:05;20.20;99.90
8595;DHT22;4335;48.860;9.198;2022-08-19T04:54:38;20.20;99.90
8595;DHT22;4335;48.860;9.198;2022-08-19T04:57:06;20.20;99.90
8595;DHT22;4335;48.860;9.198;2022-08-19T04:59:38;20.20;99.90
8595;DHT22;4335;48.860;9.198;2022-08-19T05:02:08;20.20;99.90
8595;DHT22;4335;48.860;9.198;2022-08-19T05:04:38;20.20;99.90
8595;DHT22;4335;48.860;9.198;2022-08-19T05:07:05;20.20;99.90
8595;DHT22;4335;48.860;9.198;2022-08-19T05:09:35;20.20;99.90
8595;DHT22;4335;48.860;9.198;2022-08-19T05:12:11;20.20;99.90
8595;DHT22;4335;48.860;9.198;2022-08-19T05:14:38;20.20;99.90
8595;DHT22;4335;48.860;9.198;2022-08-19T05:17:05;20.20;99.90
8595;DHT22;4335;48.860;9.198;2022-08-19T05:19:34;20.20;99.90
8595;DHT22;4335;48.860;9.198;2022-08-19T05:22:22;20.20;99.90
8595;DHT22;4335;48.860;9.198;2022-08-19T05:25:04;20.20;99.90
8595;DHT22;4335;48.860;9.198;2022-08-19T05:27:32;20.30;99.90
8595;DHT22;4335;48.860;9.198;2022-08-19T05:29:59;20.30;99.90
8595;DHT22;4335;48.860;9.198;2022-08-19T05:32:30;20.20;99.90
8595;DHT22;4335;48.860;9.198;2022-08-19T05:35:04;20.20;99.90
8595;DHT22;4335;48.860;9.198;2022-08-19T05:37:31;20.30;99.90
8595;DHT22;4335;48.860;9.198;2022-08-19T05:40:00;20.30;99.90
8595;DHT22;4335;48.860;9.198;2022-08-19T05:42:27;20.30;99.90
8595;DHT22;4335;48.860;9.198;2022-08-19T05:44:58;20.30;99.90
8595;DHT22;4335;48.860;9.198;2022-08-19T05:47:25;20.40;99.90
8595;DHT22;4335;48.860;9.198;2022-08-19T05:49:51;20.40;99.90
8595;DHT22;4335;48.860;9.198;2022-08-19T05:52:18;20.40;99.90
8595;DHT22;4335;48.860;9.198;2022-08-19T05:54:48;20.40;99.90
8595;DHT22;4335;48.860;9.198;2022-08-19T05:57:16;20.40;99.90
8595;DHT22;4335;48.860;9.198;2022-08-19T05:59:43;20.40;99.90
8595;DHT22;4335;48.860;9.198;2022-08-19T06:02:12;20.30;99.90
8595;DHT22;4335;48.860;9.198;2022-08-19T06:04:39;20.40;99.90
8595;DHT22;4335;48.860;9.198;2022-08-19T06:07:08;20.30;99.90
8595;DHT22;4335;48.860;9.198;2022-08-19T06:09:35;20.30;99.90
8595;DHT22;4335;48.860;9.198;2022-08-19T06:12:03;20.30;99.90
8595;DHT22;4335;48.860;9.198;2022-08-19T06:14:32;20.30;99.90
8595;DHT22;4335;48.860;9.198;2022-08-19T06:17:03;20.30;99.90
8595;DHT22;4335;48.860;9.198;2022-08-19T06:19:38;20.30;99.90
8595;DHT22;4335;48.860;9.198;2022-08-19T06:22:06;20.40;99.90
8595;DHT22;4335;48.860;9.198;2022-08-19T06:24:36;20.40;99.90
8595;DHT22;4335;48.860;9.198;2022-08-19T06:27:03;20.40;99.90
8595;DHT22;4335;48.860;9.198;2022-08-19T06:29:31;20.40;99.90
8595;DHT22;4335;48.860;9.198;2022-08-19T06:32:00;20.40;99.90
8595;DHT22;4335;48.860;9.198;2022-08-19T06:34:29;20.40;99.90
8595;DHT22;4335;48.860;9.198;2022-08-19T06:36:58;20.40;99.90
8595;DHT22;4335;48.860;9.198;2022-08-19T06:39:29;20.40;99.90
8595;DHT22;4335;48.860;9.198;2022-08-19T06:41:58;20.40;99.90
8595;DHT22;4335;48.860;9.198;2022-08-19T06:44:26;20.50;99.90
8595;DHT22;4335;48.860;9.198;2022-08-19T06:46:54;20.40;99.90
8595;DHT22;4335;48.860;9.198;2022-08-19T06:49:21;20.30;99.90
8595;DHT22;4335;48.860;9.198;2022-08-19T06:51:49;20.30;99.90
8595;DHT22;4335;48.860;9.198;2022-08-19T06:54:17;20.40;99.90
8595;DHT22;4335;48.860;9.198;2022-08-19T06:56:47;20.40;99.90
8595;DHT22;4335;48.860;9.198;2022-08-19T06:59:15;20.40;99.90
8595;DHT22;4335;48.860;9.198;2022-08-19T07:01:44;20.50;99.90
8595;DHT22;4335;48.860;9.198;2022-08-19T07:04:14;20.40;99.90
8595;DHT22;4335;48.860;9.198;2022-08-19T07:06:49;20.50;99.90
8595;DHT22;4335;48.860;9.198;2022-08-19T07:09:22;20.40;99.90
8595;DHT22;4335;48.860;9.198;2022-08-19T07:11:53;20.50;99.90
8595;DHT22;4335;48.860;9.198;2022-08-19T07:14:22;20.50;99.90
8595;DHT22;4335;48.860;9.198;2022-08-19T07:16:51;20.60;99.90
8595;DHT22;4335;48.860;9.198;2022-08-19T07:19:19;20.70;99.90
8595;DHT22;4335;48.860;9.198;2022-08-19T07:21:49;20.70;99.90
8595;DHT22;4335;48.860;9.198;2022-08-19T07:24:16;20.70;99.90
8595;DHT22;4335;48.860;9.198;2022-08-19T07:26:44;20.60;99.90
8595;DHT22;4335;48.860;9.198;2022-08-19T07:29:14;20.70;99.90
8595;DHT22;4335;48.860;9.198;2022-08-19T07:31:42;20.60;99.90
8595;DHT22;4335;48.860;9.198;2022-08-19T07:34:10;20.60;99.90
8595;DHT22;4335;48.860;9.198;2022-08-19T07:36:40;20.70;99.90
8595;DHT22;4335;48.860;9.198;2022-08-19T07:39:09;20.60;99.90
8595;DHT22;4335;48.860;9.198;2022-08-19T07:41:37;20.60;99.90
8595;DHT22;4335;48.860;9.198;2022-08-19T07:44:06;20.50;99.90
8595;DHT22;4335;48.860;9.198;2022-08-19T07:46:35;20.50;99.90
8595;DHT22;4335;48.860;9.198;2022-08-19T07:49:03;20.50;99.90
8595;DHT22;4335;48.860;9.198;2022-08-19T07:51:35;20.50;99.90
8595;DHT22;4335;48.860;9.198;2022-08-19T07:54:02;20.50;99.90
8595;DHT22;4335;48.860;9.198;2022-08-19T07:56:29;20.50;99.90
8595;DHT22;4335;48.860;9.198;2022-08-19T07:59:02;20.50;99.90
8595;DHT22;4335;48.860;9.198;2022-08-19T08:01:37;20.50;99.90
8595;DHT22;4335;48.860;9.198;2022-08-19T08:04:06;20.50;99.90
8595;DHT22;4335;48.860;9.198;2022-08-19T08:06:51;20.50;99.90
8595;DHT22;4335;48.860;9.198;2022-08-19T08:09:38;20.50;99.90
8595;DHT22;4335;48.860;9.198;2022-08-19T08:12:08;20.50;99.90
8595;DHT22;4335;48.860;9.198;2022-08-19T08:14:38;20.50;99.90
8595;DHT22;4335;48.860;9.198;2022-08-19T08:17:07;20.50;99.90
8595;DHT22;4335;48.860;9.198;2022-08-19T08:19:40;20.50;99.90
8595;DHT22;4335;48.860;9.198;2022-08-19T08:22:08;20.50;99.90
8595;DHT22;4335;48.860;9.198;2022-08-19T08:25:02;20.60;99.90
8595;DHT22;4335;48.860;9.198;2022-08-19T08:27:29;20.60;99.90
8595;DHT22;4335;48.860;9.198;2022-08-19T08:29:57;20.60;99.90
8595;DHT22;4335;48.860;9.198;2022-08-19T08:32:24;20.60;99.90
8595;DHT22;4335;48.860;9.198;2022-08-19T08:34:52;20.60;99.90
8595;DHT22;4335;48.860;9.198;2022-08-19T08:37:21;20.60;99.90
8595;DHT22;4335;48.860;9.198;2022-08-19T08:39:48;20.70;99.90
8595;DHT22;4335;48.860;9.198;2022-08-19T08:42:22;20.70;99.90
8595;DHT22;4335;48.860;9.198;2022-08-19T08:44:59;20.70;99.90
8595;DHT22;4335;48.860;9.198;2022-08-19T08:47:30;20.70;99.90
8595;DHT22;4335;48.860;9.198;2022-08-19T08:50:02;20.70;99.90
8595;DHT22;4335;48.860;9.198;2022-08-19T08:52:34;20.80;99.90
8595;DHT22;4335;48.860;9.198;2022-08-19T08:55:11;21.00;99.90
8595;DHT22;4335;48.860;9.198;2022-08-19T08:57:44;21.00;99.90
8595;DHT22;4335;48.860;9.198;2022-08-19T09:00:20;21.00;99.90
8595;DHT22;4335;48.860;9.198;2022-08-19T09:02:48;21.20;99.90
8595;DHT22;4335;48.860;9.198;2022-08-19T09:05:15;21.30;99.90
8595;DHT22;4335;48.860;9.198;2022-08-19T09:07:49;21.40;99.90
8595;DHT22;4335;48.860;9.198;2022-08-19T09:10:21;21.40;99.90
8595;DHT22;4335;48.860;9.198;2022-08-19T09:13:09;21.40;99.90
8595;DHT22;4335;48.860;9.198;2022-08-19T09:15:42;21.40;99.90
8595;DHT22;4335;48.860;9.198;2022-08-19T09:18:11;21.40;99.90
8595;DHT22;4335;48.860;9.198;2022-08-19T09:20:38;21.50;99.90
8595;DHT22;4335;48.860;9.198;2022-08-19T09:23:05;21.50;99.90
8595;DHT22;4335;48.860;9.198;2022-08-19T09:25:34;21.50;99.90
8595;DHT22;4335;48.860;9.198;2022-08-19T09:28:01;21.60;99.90
8595;DHT22;4335;48.860;9.198;2022-08-19T09:30:32;21.70;99.90
8595;DHT22;4335;48.860;9.198;2022-08-19T09:33:02;21.70;99.90
8595;DHT22;4335;48.860;9.198;2022-08-19T09:35:34;21.80;99.90
8595;DHT22;4335;48.860;9.198;2022-08-19T09:38:01;21.80;99.90
8595;DHT22;4335;48.860;9.198;2022-08-19T09:40:29;21.80;99.90
8595;DHT22;4335;48.860;9.198;2022-08-19T09:43:02;21.90;99.90
8595;DHT22;4335;48.860;9.198;2022-08-19T09:45:29;22.00;99.90
8595;DHT22;4335;48.860;9.198;2022-08-19T09:47:59;22.00;99.90
8595;DHT22;4335;48.860;9.198;2022-08-19T09:50:25;22.10;99.90
8595;DHT22;4335;48.860;9.198;2022-08-19T09:52:53;22.10;99.90
8595;DHT22;4335;48.860;9.198;2022-08-19T09:55:20;22.20;99.90
8595;DHT22;4335;48.860;9.198;2022-08-19T09:57:46;22.20;99.90
8595;DHT22;4335;48.860;9.198;2022-08-19T10:00:16;22.20;99.90
8595;DHT22;4335;48.860;9.198;2022-08-19T10:02:55;22.20;99.90
8595;DHT22;4335;48.860;9.198;2022-08-19T10:05:25;22.30;99.90
8595;DHT22;4335;48.860;9.198;2022-08-19T10:08:14;22.20;99.90
8595;DHT22;4335;48.860;9.198;2022-08-19T10:10:41;22.30;99.90
8595;DHT22;4335;48.860;9.198;2022-08-19T10:13:13;22.20;99.90
8595;DHT22;4335;48.860;9.198;2022-08-19T10:15:40;22.20;99.90
8595;DHT22;4335;48.860;9.198;2022-08-19T10:21:06;22.40;99.90
8595;DHT22;4335;48.860;9.198;2022-08-19T10:23:50;22.40;99.90
8595;DHT22;4335;48.860;9.198;2022-08-19T10:26:23;22.40;99.90
8595;DHT22;4335;48.860;9.198;2022-08-19T10:29:10;22.40;99.90
8595;DHT22;4335;48.860;9.198;2022-08-19T10:31:54;22.50;99.90
8595;DHT22;4335;48.860;9.198;2022-08-19T10:34:21;22.50;99.90
8595;DHT22;4335;48.860;9.198;2022-08-19T10:36:50;22.60;99.90
8595;DHT22;4335;48.860;9.198;2022-08-19T10:39:35;22.60;99.90
8595;DHT22;4335;48.860;9.198;2022-08-19T10:42:24;22.50;99.90
8595;DHT22;4335;48.860;9.198;2022-08-19T10:45:11;22.50;99.90
8595;DHT22;4335;48.860;9.198;2022-08-19T10:48:04;22.50;99.90
8595;DHT22;4335;48.860;9.198;2022-08-19T10:51:05;22.50;99.90
8595;DHT22;4335;48.860;9.198;2022-08-19T10:54:02;22.50;99.90
8595;DHT22;4335;48.860;9.198;2022-08-19T11:02:49;22.60;99.90
8595;DHT22;4335;48.860;9.198;2022-08-19T11:05:39;22.80;99.90
8595;DHT22;4335;48.860;9.198;2022-08-19T11:08:07;22.90;99.90
8595;DHT22;4335;48.860;9.198;2022-08-19T11:11:16;23.00;99.90
8595;DHT22;4335;48.860;9.198;2022-08-19T11:14:03;23.10;99.90
8595;DHT22;4335;48.860;9.198;2022-08-19T11:16:36;23.30;99.90
8595;DHT22;4335;48.860;9.198;2022-08-19T11:22:45;23.40;99.90
8595;DHT22;4335;48.860;9.198;2022-08-19T11:25:28;23.60;99.90
8595;DHT22;4335;48.860;9.198;2022-08-19T11:27:55;23.70;99.90
8595;DHT22;4335;48.860;9.198;2022-08-19T11:30:25;23.70;99.90
8595;DHT22;4335;48.860;9.198;2022-08-19T11:32:52;23.70;99.90
8595;DHT22;4335;48.860;9.198;2022-08-19T11:35:19;23.70;99.90
8595;DHT22;4335;48.860;9.198;2022-08-19T11:37:46;23.70;99.90
8595;DHT22;4335;48.860;9.198;2022-08-19T11:40:12;23.60;99.90
8595;DHT22;4335;48.860;9.198;2022-08-19T11:42:39;23.70;99.90
8595;DHT22;4335;48.860;9.198;2022-08-19T11:45:24;23.60;99.90
8595;DHT22;4335;48.860;9.198;2022-08-19T11:47:50;23.60;99.90
8595;DHT22;4335;48.860;9.198;2022-08-19T11:50:21;23.60;99.90
8595;DHT22;4335;48.860;9.198;2022-08-19T11:52:49;23.50;99.90
8595;DHT22;4335;48.860;9.198;2022-08-19T11:55:16;23.50;99.90
8595;DHT22;4335;48.860;9.198;2022-08-19T11:57:42;23.50;99.90
8595;DHT22;4335;48.860;9.198;2022-08-19T12:00:11;23.50;99.90
8595;DHT22;4335;48.860;9.198;2022-08-19T12:02:38;23.40;99.90
8595;DHT22;4335;48.860;9.198;2022-08-19T12:05:09;23.40;99.90
8595;DHT22;4335;48.860;9.198;2022-08-19T12:07:36;23.40;99.90
8595;DHT22;4335;48.860;9.198;2022-08-19T12:10:04;23.40;99.90
8595;DHT22;4335;48.860;9.198;2022-08-19T12:12:30;23.50;99.90
8595;DHT22;4335;48.860;9.198;2022-08-19T12:15:04;23.50;99.90
8595;DHT22;4335;48.860;9.198;2022-08-19T12:17:31;23.50;99.90
8595;DHT22;4335;48.860;9.198;2022-08-19T12:20:00;23.50;99.90
8595;DHT22;4335;48.860;9.198;2022-08-19T12:22:29;23.60;99.90
8595;DHT22;4335;48.860;9.198;2022-08-19T12:24:56;23.50;99.90
8595;DHT22;4335;48.860;9.198;2022-08-19T12:27:24;23.50;99.90
8595;DHT22;4335;48.860;9.198;2022-08-19T12:29:53;23.60;99.90
8595;DHT22;4335;48.860;9.198;2022-08-19T12:32:20;23.60;99.90
8595;DHT22;4335;48.860;9.198;2022-08-19T12:34:55;23.70;99.90
8595;DHT22;4335;48.860;9.198;2022-08-19T12:37:27;23.80;99.90
8595;DHT22;4335;48.860;9.198;2022-08-19T12:39:59;24.00;99.90
8595;DHT22;4335;48.860;9.198;2022-08-19T12:42:25;24.00;99.90
8595;DHT22;4335;48.860;9.198;2022-08-19T12:44:52;24.10;99.90
8595;DHT22;4335;48.860;9.198;2022-08-19T12:47:22;24.10;99.90
8595;DHT22;4335;48.860;9.198;2022-08-19T12:49:51;24.10;99.90
8595;DHT22;4335;48.860;9.198;2022-08-19T12:52:23;24.00;99.90
8595;DHT22;4335;48.860;9.198;2022-08-19T12:54:52;24.00;99.90
8595;DHT22;4335;48.860;9.198;2022-08-19T12:57:21;24.00;99.90
8595;DHT22;4335;48.860;9.198;2022-08-19T12:59:52;23.90;99.90
8595;DHT22;4335;48.860;9.198;2022-08-19T13:02:19;23.80;99.90
8595;DHT22;4335;48.860;9.198;2022-08-19T13:04:50;23.80;99.90
8595;DHT22;4335;48.860;9.198;2022-08-19T13:07:17;23.80;99.90
8595;DHT22;4335;48.860;9.198;2022-08-19T13:09:44;23.70;99.90
8595;DHT22;4335;48.860;9.198;2022-08-19T13:12:13;23.70;99.90
8595;DHT22;4335;48.860;9.198;2022-08-19T13:14:41;23.60;99.90
8595;DHT22;4335;48.860;9.198;2022-08-19T13:17:07;23.60;99.90
8595;DHT22;4335;48.860;9.198;2022-08-19T13:19:39;23.60;99.90
8595;DHT22;4335;48.860;9.198;2022-08-19T13:22:14;23.50;99.90
8595;DHT22;4335;48.860;9.198;2022-08-19T13:24:41;23.40;99.90
8595;DHT22;4335;48.860;9.198;2022-08-19T13:27:08;23.30;99.90
8595;DHT22;4335;48.860;9.198;2022-08-19T13:29:54;23.20;99.90
8595;DHT22;4335;48.860;9.198;2022-08-19T13:32:41;23.00;99.90
8595;DHT22;4335;48.860;9.198;2022-08-19T13:35:28;22.90;99.90
8595;DHT22;4335;48.860;9.198;2022-08-19T13:37:55;22.80;99.90
8595;DHT22;4335;48.860;9.198;2022-08-19T13:40:24;22.80;99.90
8595;DHT22;4335;48.860;9.198;2022-08-19T13:43:08;22.70;99.90
8595;DHT22;4335;48.860;9.198;2022-08-19T13:45:42;22.70;99.90
8595;DHT22;4335;48.860;9.198;2022-08-19T13:48:14;22.60;99.90
8595;DHT22;4335;48.860;9.198;2022-08-19T13:50:44;22.60;99.90
8595;DHT22;4335;48.860;9.198;2022-08-19T13:53:12;22.50;99.90
8595;DHT22;4335;48.860;9.198;2022-08-19T13:55:40;22.40;99.90
8595;DHT22;4335;48.860;9.198;2022-08-19T13:58:07;22.30;99.90
8595;DHT22;4335;48.860;9.198;2022-08-19T14:00:38;22.20;99.90
8595;DHT22;4335;48.860;9.198;2022-08-19T14:03:05;22.10;99.90
8595;DHT22;4335;48.860;9.198;2022-08-19T14:05:32;22.00;99.90
8595;DHT22;4335;48.860;9.198;2022-08-19T14:07:59;21.90;99.90
8595;DHT22;4335;48.860;9.198;2022-08-19T14:10:26;21.80;99.90
8595;DHT22;4335;48.860;9.198;2022-08-19T14:12:54;21.80;99.90
8595;DHT22;4335;48.860;9.198;2022-08-19T14:15:25;21.60;99.90
8595;DHT22;4335;48.860;9.198;2022-08-19T14:17:53;21.50;99.90
8595;DHT22;4335;48.860;9.198;2022-08-19T14:20:20;21.60;99.90
8595;DHT22;4335;48.860;9.198;2022-08-19T14:22:48;21.60;99.90
8595;DHT22;4335;48.860;9.198;2022-08-19T14:25:17;21.60;99.90
8595;DHT22;4335;48.860;9.198;2022-08-19T14:27:44;21.60;99.90
8595;DHT22;4335;48.860;9.198;2022-08-19T14:30:13;21.70;99.90
8595;DHT22;4335;48.860;9.198;2022-08-19T14:32:43;21.70;99.90
8595;DHT22;4335;48.860;9.198;2022-08-19T14:35:12;21.70;99.90
8595;DHT22;4335;48.860;9.198;2022-08-19T14:37:43;21.70;99.90
8595;DHT22;4335;48.860;9.198;2022-08-19T14:40:11;21.60;99.90
8595;DHT22;4335;48.860;9.198;2022-08-19T14:42:38;21.60;99.90
8595;DHT22;4335;48.860;9.198;2022-08-19T14:45:09;21.50;99.90
8595;DHT22;4335;48.860;9.198;2022-08-19T14:47:36;21.50;99.90
8595;DHT22;4335;48.860;9.198;2022-08-19T14:50:05;21.50;99.90
8595;DHT22;4335;48.860;9.198;2022-08-19T14:52:33;21.40;99.90
8595;DHT22;4335;48.860;9.198;2022-08-19T14:55:00;21.40;99.90
8595;DHT22;4335;48.860;9.198;2022-08-19T14:57:26;21.50;99.90
8595;DHT22;4335;48.860;9.198;2022-08-19T14:59:53;21.50;99.90
8595;DHT22;4335;48.860;9.198;2022-08-19T15:02:23;21.60;99.90
8595;DHT22;4335;48.860;9.198;2022-08-19T15:04:49;21.70;99.90
8595;DHT22;4335;48.860;9.198;2022-08-19T15:07:23;21.70;99.90
8595;DHT22;4335;48.860;9.198;2022-08-19T15:09:51;21.60;99.90
8595;DHT22;4335;48.860;9.198;2022-08-19T15:12:24;21.60;99.90
8595;DHT22;4335;48.860;9.198;2022-08-19T15:14:54;21.60;99.90
8595;DHT22;4335;48.860;9.198;2022-08-19T15:17:20;21.60;99.90
8595;DHT22;4335;48.860;9.198;2022-08-19T15:19:47;21.70;99.90
8595;DHT22;4335;48.860;9.198;2022-08-19T15:22:13;21.80;99.90
8595;DHT22;4335;48.860;9.198;2022-08-19T15:24:40;21.90;99.90
8595;DHT22;4335;48.860;9.198;2022-08-19T15:27:09;22.00;99.90
8595;DHT22;4335;48.860;9.198;2022-08-19T15:29:36;22.00;99.90
8595;DHT22;4335;48.860;9.198;2022-08-19T15:32:03;22.10;99.90
8595;DHT22;4335;48.860;9.198;2022-08-19T15:34:32;22.10;99.90
8595;DHT22;4335;48.860;9.198;2022-08-19T15:36:59;22.10;99.90
8595;DHT22;4335;48.860;9.198;2022-08-19T15:39:35;22.20;99.90
8595;DHT22;4335;48.860;9.198;2022-08-19T15:42:03;22.20;99.90
8595;DHT22;4335;48.860;9.198;2022-08-19T15:44:45;22.20;99.90
8595;DHT22;4335;48.860;9.198;2022-08-19T15:47:17;22.30;99.90
8595;DHT22;4335;48.860;9.198;2022-08-19T15:49:50;22.30;99.90
8595;DHT22;4335;48.860;9.198;2022-08-19T15:52:21;22.30;99.90
8595;DHT22;4335;48.860;9.198;2022-08-19T15:54:48;22.30;99.90
8595;DHT22;4335;48.860;9.198;2022-08-19T15:57:17;22.30;99.90
8595;DHT22;4335;48.860;9.198;2022-08-19T16:00:07;22.40;99.90
8595;DHT22;4335;48.860;9.198;2022-08-19T16:02:54;22.30;99.90
8595;DHT22;4335;48.860;9.198;2022-08-19T16:05:39;22.40;99.90
8595;DHT22;4335;48.860;9.198;2022-08-19T16:08:27;22.40;99.90
8595;DHT22;4335;48.860;9.198;2022-08-19T16:10:54;22.30;99.90
8595;DHT22;4335;48.860;9.198;2022-08-19T16:13:21;22.30;99.90
8595;DHT22;4335;48.860;9.198;2022-08-19T16:15:49;22.30;99.90
8595;DHT22;4335;48.860;9.198;2022-08-19T16:18:20;22.20;99.90
8595;DHT22;4335;48.860;9.198;2022-08-19T16:20:50;22.20;99.90
8595;DHT22;4335;48.860;9.198;2022-08-19T16:23:19;22.10;99.90
8595;DHT22;4335;48.860;9.198;2022-08-19T16:25:47;22.00;99.90
8595;DHT22;4335;48.860;9.198;2022-08-19T16:28:14;22.00;99.90
8595;DHT22;4335;48.860;9.198;2022-08-19T16:30:41;22.00;99.90
8595;DHT22;4335;48.860;9.198;2022-08-19T16:33:12;22.00;99.90
8595;DHT22;4335;48.860;9.198;2022-08-19T16:35:39;22.00;99.90